Time;durP1;ratioP1;P1;durP2;ratioP2;P2;SDS_P1;SDS_P2;PMS_P1;PMS_P2;Temp;Humidity;BMP_temperature;BMP_pressure;BME280_temperature;BME280_humidity;BME280_pressure;Samples;Min_cycle;Max_cycle;Signal;HPM_P1;HPM_P2
2022/05/10 00:00:25;;;;;;;;;;;16.10;72.30;;;;;;5021899;28;19914;-79
2022/05/10 00:02:55;;;;;;;;;;;16.10;72.40;;;;;;5009721;28;20390;-79
2022/05/10 00:05:25;;;;;;;;;;;16.00;72.80;;;;;;5032529;28;19921;-80
2022/05/10 00:07:50;;;;;;;;;;;15.90;73.00;;;;;;5024716;28;20304;-80
2022/05/10 00:10:16;;;;;;;;;;;15.90;73.30;;;;;;5032778;28;19940;-79
2022/05/10 00:12:41;;;;;;;;;;;15.80;73.10;;;;;;5035448;28;19909;-79
2022/05/10 00:15:07;;;;;;;;;;;15.80;72.80;;;;;;5017165;28;19956;-79
2022/05/10 00:17:40;;;;;;;;;;;15.80;72.80;;;;;;5018717;28;20325;-79
2022/05/10 00:20:07;;;;;;;;;;;15.80;72.70;;;;;;5009261;28;19960;-79
2022/05/10 00:22:34;;;;;;;;;;;15.80;71.90;;;;;;5025747;28;20215;-79
2022/05/10 00:25:00;;;;;;;;;;;15.80;71.80;;;;;;5023749;28;19917;-80
2022/05/10 00:27:25;;;;;;;;;;;15.80;71.40;;;;;;5013511;28;20237;-79
2022/05/10 00:29:51;;;;;;;;;;;15.90;70.40;;;;;;5010206;28;19925;-79
2022/05/10 00:32:16;;;;;;;;;;;16.00;70.30;;;;;;5021369;28;20377;-79
2022/05/10 00:34:43;;;;;;;;;;;16.20;69.70;;;;;;5013180;28;19933;-78
2022/05/10 00:37:10;;;;;;;;;;;16.20;69.60;;;;;;5012937;28;19929;-79
2022/05/10 00:39:37;;;;;;;;;;;16.30;69.00;;;;;;5039287;22;19996;-81
2022/05/10 00:42:05;;;;;;;;;;;16.30;69.00;;;;;;5005324;28;19961;-81
2022/05/10 00:44:34;;;;;;;;;;;16.30;68.70;;;;;;4995061;28;20008;-81
2022/05/10 00:47:05;;;;;;;;;;;16.30;68.80;;;;;;5005555;28;19918;-82
2022/05/10 00:49:34;;;;;;;;;;;16.30;68.60;;;;;;4978722;28;20370;-82
2022/05/10 00:52:06;;;;;;;;;;;16.20;69.10;;;;;;4996178;28;20546;-82
2022/05/10 00:54:38;;;;;;;;;;;16.10;69.70;;;;;;4995050;28;19953;-82
2022/05/10 00:57:06;;;;;;;;;;;16.10;69.70;;;;;;4980596;28;19918;-81
2022/05/10 00:59:44;;;;;;;;;;;16.20;69.50;;;;;;4996096;28;19961;-82
2022/05/10 01:02:19;;;;;;;;;;;16.30;69.20;;;;;;4997366;28;19917;-82
2022/05/10 01:04:51;;;;;;;;;;;16.30;68.90;;;;;;4996096;28;19914;-82
2022/05/10 01:07:24;;;;;;;;;;;16.10;69.70;;;;;;4994775;28;19937;-81
2022/05/10 01:09:55;;;;;;;;;;;16.10;69.70;;;;;;4976146;28;19914;-82
2022/05/10 01:12:24;;;;;;;;;;;16.10;69.50;;;;;;4977664;28;19929;-82
2022/05/10 01:14:53;;;;;;;;;;;16.10;69.30;;;;;;4968841;28;19918;-81
2022/05/10 01:17:18;;;;;;;;;;;16.00;69.60;;;;;;4994526;28;19914;-82
2022/05/10 01:19:45;;;;;;;;;;;16.00;70.10;;;;;;4976838;28;19921;-81
2022/05/10 01:22:29;;;;;;;;;;;15.90;70.30;;;;;;4978315;28;19920;-81
2022/05/10 01:24:54;;;;;;;;;;;15.90;70.60;;;;;;4994150;28;19929;-81
2022/05/10 01:27:27;;;;;;;;;;;15.90;70.00;;;;;;4978726;28;19914;-81
2022/05/10 01:29:58;;;;;;;;;;;15.80;70.20;;;;;;4992674;28;19918;-81
2022/05/10 01:35:19;;;;;;;;;;;15.80;70.20;;;;;;4991787;28;19920;-82
2022/05/10 01:37:47;;;;;;;;;;;15.80;70.20;;;;;;5006868;28;19910;-81
2022/05/10 01:40:19;;;;;;;;;;;15.90;69.60;;;;;;4993322;28;20012;-81
2022/05/10 01:42:51;;;;;;;;;;;15.90;69.10;;;;;;5020262;28;19914;-81
2022/05/10 01:45:30;;;;;;;;;;;15.90;69.40;;;;;;4997298;28;19960;-82
2022/05/10 01:47:58;;;;;;;;;;;16.00;68.90;;;;;;4995800;28;19914;-81
2022/05/10 01:50:42;;;;;;;;;;;16.00;68.80;;;;;;4996692;28;19925;-82
2022/05/10 01:53:07;;;;;;;;;;;15.90;69.30;;;;;;5008039;28;19921;-81
2022/05/10 01:55:33;;;;;;;;;;;15.90;69.30;;;;;;4995923;28;20065;-81
2022/05/10 01:58:01;;;;;;;;;;;16.00;68.90;;;;;;4993113;28;19925;-81
2022/05/10 02:00:27;;;;;;;;;;;15.90;69.30;;;;;;4993416;28;20263;-82
2022/05/10 02:02:57;;;;;;;;;;;15.90;69.30;;;;;;4996105;28;20004;-81
2022/05/10 02:05:29;;;;;;;;;;;15.80;69.50;;;;;;4993517;28;19917;-81
2022/05/10 02:07:56;;;;;;;;;;;15.80;69.60;;;;;;4995774;28;19909;-81
2022/05/10 02:10:25;;;;;;;;;;;15.80;69.50;;;;;;4994979;28;19918;-81
2022/05/10 02:13:00;;;;;;;;;;;15.80;69.10;;;;;;4996319;28;20389;-82
2022/05/10 02:15:31;;;;;;;;;;;15.80;69.30;;;;;;4988785;28;19918;-81
2022/05/10 02:18:01;;;;;;;;;;;15.80;69.60;;;;;;4993047;28;19909;-82
2022/05/10 02:20:30;;;;;;;;;;;15.80;68.90;;;;;;4994438;28;20314;-81
2022/05/10 02:23:07;;;;;;;;;;;15.80;69.20;;;;;;4992779;28;19920;-81
2022/05/10 02:25:38;;;;;;;;;;;15.80;69.40;;;;;;4993098;28;19924;-81
2022/05/10 02:28:21;;;;;;;;;;;15.80;69.30;;;;;;4991498;28;20296;-81
2022/05/10 02:30:46;;;;;;;;;;;15.80;68.90;;;;;;4988051;28;19918;-81
2022/05/10 02:33:13;;;;;;;;;;;15.80;68.90;;;;;;4988868;28;20292;-82
2022/05/10 02:35:49;;;;;;;;;;;15.80;69.00;;;;;;5006213;28;19988;-81
2022/05/10 02:38:17;;;;;;;;;;;15.80;69.10;;;;;;4993353;28;19933;-81
2022/05/10 02:40:43;;;;;;;;;;;15.80;69.30;;;;;;4992188;28;19922;-81
2022/05/10 02:43:10;;;;;;;;;;;15.80;69.20;;;;;;5007829;28;20032;-81
2022/05/10 02:45:36;;;;;;;;;;;15.80;69.20;;;;;;5007650;28;20024;-82
2022/05/10 02:48:02;;;;;;;;;;;15.80;69.00;;;;;;4994419;28;19922;-81
2022/05/10 02:50:30;;;;;;;;;;;15.80;69.00;;;;;;5008358;28;20012;-82
2022/05/10 02:52:55;;;;;;;;;;;15.80;69.30;;;;;;5011325;28;20286;-82
2022/05/10 02:55:24;;;;;;;;;;;15.70;69.20;;;;;;4995704;28;19948;-82
2022/05/10 02:57:51;;;;;;;;;;;15.70;69.40;;;;;;4993040;28;19975;-81
2022/05/10 03:00:17;;;;;;;;;;;15.80;69.50;;;;;;5006932;28;19920;-82
2022/05/10 03:02:45;;;;;;;;;;;15.80;69.60;;;;;;5025363;28;19968;-82
2022/05/10 03:05:12;;;;;;;;;;;15.80;68.90;;;;;;5015164;28;19922;-82
2022/05/10 03:07:38;;;;;;;;;;;15.80;69.20;;;;;;4994923;28;19961;-81
2022/05/10 03:10:04;;;;;;;;;;;15.80;69.50;;;;;;4994288;28;19922;-82
2022/05/10 03:12:30;;;;;;;;;;;15.80;69.30;;;;;;4992184;28;19965;-82
2022/05/10 03:14:55;;;;;;;;;;;15.70;69.60;;;;;;4995810;28;19910;-82
2022/05/10 03:17:21;;;;;;;;;;;15.80;69.40;;;;;;4994462;28;20333;-81
2022/05/10 03:19:46;;;;;;;;;;;15.70;69.00;;;;;;4992117;28;20405;-81
2022/05/10 03:22:12;;;;;;;;;;;15.70;69.20;;;;;;4990232;28;19949;-81
2022/05/10 03:24:37;;;;;;;;;;;15.70;69.30;;;;;;5005056;28;19917;-80
2022/05/10 03:27:04;;;;;;;;;;;15.70;69.30;;;;;;4994297;28;19914;-82
2022/05/10 03:29:29;;;;;;;;;;;15.60;69.40;;;;;;4992605;28;19913;-82
2022/05/10 03:31:55;;;;;;;;;;;15.60;70.00;;;;;;4994722;28;20427;-81
2022/05/10 03:37:05;;;;;;;;;;;15.60;70.30;;;;;;5006742;28;20060;-81
2022/05/10 03:39:30;;;;;;;;;;;15.70;69.60;;;;;;5010119;28;20002;-81
2022/05/10 03:41:56;;;;;;;;;;;15.60;69.30;;;;;;4986089;28;20388;-82
2022/05/10 03:44:21;;;;;;;;;;;15.70;69.20;;;;;;5010222;28;19973;-82
2022/05/10 03:46:47;;;;;;;;;;;15.70;69.30;;;;;;4995621;28;19948;-82
2022/05/10 03:49:13;;;;;;;;;;;15.70;68.70;;;;;;4992817;28;20392;-82
2022/05/10 03:51:38;;;;;;;;;;;15.70;68.80;;;;;;4994686;28;20392;-82
2022/05/10 03:54:04;;;;;;;;;;;15.80;68.50;;;;;;5008526;28;19914;-82
2022/05/10 03:56:29;;;;;;;;;;;15.70;68.90;;;;;;4995437;28;19981;-82
2022/05/10 03:58:55;;;;;;;;;;;15.80;69.00;;;;;;5004577;28;19925;-83
2022/05/10 04:01:21;;;;;;;;;;;15.80;68.50;;;;;;5031106;28;19934;-82
2022/05/10 04:03:47;;;;;;;;;;;15.80;68.30;;;;;;5000545;28;20320;-81
2022/05/10 04:06:13;;;;;;;;;;;16.00;68.00;;;;;;4989510;28;19929;-81
2022/05/10 04:08:38;;;;;;;;;;;15.90;68.60;;;;;;4994828;28;19914;-81
2022/05/10 04:11:04;;;;;;;;;;;15.90;68.40;;;;;;4994855;28;19928;-82
2022/05/10 04:13:31;;;;;;;;;;;16.00;67.40;;;;;;5011457;28;19914;-82
2022/05/10 04:15:57;;;;;;;;;;;16.00;67.60;;;;;;5009373;28;19918;-82
2022/05/10 04:18:23;;;;;;;;;;;16.00;67.30;;;;;;4996829;28;19914;-82
2022/05/10 04:20:48;;;;;;;;;;;16.10;67.40;;;;;;5006331;28;20257;-85
2022/05/10 04:23:14;;;;;;;;;;;16.10;67.10;;;;;;4992171;28;19914;-81
2022/05/10 04:25:39;;;;;;;;;;;16.00;67.20;;;;;;5007671;28;20005;-82
2022/05/10 04:28:06;;;;;;;;;;;16.10;67.40;;;;;;5006284;28;20357;-82
2022/05/10 04:30:32;;;;;;;;;;;16.00;67.80;;;;;;4987727;28;19918;-83
2022/05/10 04:32:58;;;;;;;;;;;16.10;68.10;;;;;;4988149;28;19914;-81
2022/05/10 04:35:23;;;;;;;;;;;16.20;67.20;;;;;;4990979;28;19918;-81
2022/05/10 04:37:49;;;;;;;;;;;16.20;67.00;;;;;;4990585;28;19921;-81
2022/05/10 04:42:58;;;;;;;;;;;16.20;66.90;;;;;;4987789;28;20444;-82
2022/05/10 04:45:23;;;;;;;;;;;16.20;66.90;;;;;;4978226;28;20017;-82
2022/05/10 04:47:49;;;;;;;;;;;16.30;66.90;;;;;;4990586;28;19937;-82
2022/05/10 04:50:14;;;;;;;;;;;16.30;66.70;;;;;;4990590;28;19989;-81
2022/05/10 04:52:40;;;;;;;;;;;16.30;66.10;;;;;;4973879;28;19953;-82
2022/05/10 04:55:07;;;;;;;;;;;16.40;65.90;;;;;;4992036;28;20291;-84
2022/05/10 04:57:34;;;;;;;;;;;16.40;66.10;;;;;;4990671;28;19914;-81
2022/05/10 05:00:00;;;;;;;;;;;16.40;66.10;;;;;;4976991;28;20343;-81
2022/05/10 05:02:25;;;;;;;;;;;16.50;65.90;;;;;;5002138;28;19964;-81
2022/05/10 05:04:51;;;;;;;;;;;16.50;65.80;;;;;;4994307;28;19979;-81
2022/05/10 05:07:16;;;;;;;;;;;16.50;65.60;;;;;;4993197;28;20329;-81
2022/05/10 05:09:43;;;;;;;;;;;16.50;65.90;;;;;;4980636;28;19918;-85
2022/05/10 05:12:09;;;;;;;;;;;16.60;65.40;;;;;;4995898;28;19917;-83
2022/05/10 05:14:34;;;;;;;;;;;16.70;65.60;;;;;;4995746;28;19928;-83
2022/05/10 05:16:59;;;;;;;;;;;16.70;65.10;;;;;;4996841;28;19918;-83
2022/05/10 05:19:25;;;;;;;;;;;16.80;65.50;;;;;;4977062;28;19933;-83
2022/05/10 05:21:51;;;;;;;;;;;16.80;65.10;;;;;;4995863;28;19918;-84
2022/05/10 05:24:16;;;;;;;;;;;17.00;64.60;;;;;;5001321;28;19910;-84
2022/05/10 05:26:42;;;;;;;;;;;17.00;64.50;;;;;;4991048;28;19930;-83
2022/05/10 05:29:07;;;;;;;;;;;17.00;64.70;;;;;;4995516;28;19925;-83
2022/05/10 05:31:33;;;;;;;;;;;17.00;64.50;;;;;;4994470;28;19940;-83
2022/05/10 05:33:58;;;;;;;;;;;17.10;64.10;;;;;;4997360;28;20246;-83
2022/05/10 05:36:24;;;;;;;;;;;17.10;64.20;;;;;;4983655;28;19921;-83
2022/05/10 05:38:50;;;;;;;;;;;17.10;64.50;;;;;;5013817;28;19925;-82
2022/05/10 05:41:19;;;;;;;;;;;17.10;64.60;;;;;;4993933;28;19918;-83
2022/05/10 05:43:45;;;;;;;;;;;17.10;64.10;;;;;;4995225;28;19920;-83
2022/05/10 05:46:10;;;;;;;;;;;17.10;64.40;;;;;;4999591;28;20345;-82
2022/05/10 05:48:37;;;;;;;;;;;17.10;64.50;;;;;;5014548;28;19980;-82
2022/05/10 05:51:03;;;;;;;;;;;17.20;63.80;;;;;;4982142;28;20008;-81
2022/05/10 05:53:28;;;;;;;;;;;17.20;63.90;;;;;;4996360;28;19948;-82
2022/05/10 05:55:59;;;;;;;;;;;17.30;63.80;;;;;;4994440;28;19914;-82
2022/05/10 05:58:24;;;;;;;;;;;17.30;63.80;;;;;;4992897;28;19910;-82
2022/05/10 06:00:49;;;;;;;;;;;17.20;63.80;;;;;;4992516;28;19920;-81
2022/05/10 06:03:15;;;;;;;;;;;17.30;63.60;;;;;;4999333;28;19914;-81
2022/05/10 06:05:40;;;;;;;;;;;17.30;63.80;;;;;;4989151;28;19922;-80
2022/05/10 06:08:08;;;;;;;;;;;17.30;63.90;;;;;;4996561;28;19918;-80
2022/05/10 06:10:34;;;;;;;;;;;17.30;63.90;;;;;;4991351;28;19920;-81
2022/05/10 06:13:03;;;;;;;;;;;17.50;63.70;;;;;;4976890;28;20161;-79
2022/05/10 06:15:29;;;;;;;;;;;17.60;63.40;;;;;;4977770;28;19922;-82
2022/05/10 06:17:56;;;;;;;;;;;18.00;63.30;;;;;;4990951;28;19956;-83
2022/05/10 06:20:22;;;;;;;;;;;18.20;62.10;;;;;;4993369;28;19913;-80
2022/05/10 06:22:48;;;;;;;;;;;18.40;61.60;;;;;;4974937;28;19969;-83
2022/05/10 06:25:17;;;;;;;;;;;18.60;61.80;;;;;;4983565;28;19917;-81
2022/05/10 06:27:49;;;;;;;;;;;18.90;60.60;;;;;;4976275;28;19921;-79
2022/05/10 06:30:15;;;;;;;;;;;19.00;60.20;;;;;;4992457;28;20116;-79
2022/05/10 06:32:41;;;;;;;;;;;19.40;59.50;;;;;;4991259;28;20088;-80
2022/05/10 06:35:06;;;;;;;;;;;19.50;59.20;;;;;;4992707;28;19914;-80
2022/05/10 06:40:17;;;;;;;;;;;19.70;59.10;;;;;;4987345;28;19952;-80
2022/05/10 06:42:42;;;;;;;;;;;19.60;59.40;;;;;;4985333;28;19921;-81
2022/05/10 06:45:10;;;;;;;;;;;19.70;59.10;;;;;;4988629;28;19933;-81
2022/05/10 06:47:42;;;;;;;;;;;19.70;58.90;;;;;;4999349;28;19917;-81
2022/05/10 06:50:10;;;;;;;;;;;19.60;58.90;;;;;;4992652;28;19924;-80
2022/05/10 06:52:35;;;;;;;;;;;19.70;59.20;;;;;;4969992;28;20399;-80
2022/05/10 06:55:01;;;;;;;;;;;19.80;59.00;;;;;;4991747;28;19989;-80
2022/05/10 06:57:26;;;;;;;;;;;19.60;59.60;;;;;;4974410;28;20012;-81
2022/05/10 06:59:55;;;;;;;;;;;19.60;60.00;;;;;;4986626;28;19979;-81
2022/05/10 07:02:21;;;;;;;;;;;19.50;60.90;;;;;;4998996;28;19917;-81
2022/05/10 07:04:46;;;;;;;;;;;19.60;60.00;;;;;;4979321;28;20000;-80
2022/05/10 07:07:12;;;;;;;;;;;19.60;60.20;;;;;;4992341;28;19961;-82
2022/05/10 07:09:39;;;;;;;;;;;19.70;60.80;;;;;;5004273;28;20369;-83
2022/05/10 07:12:04;;;;;;;;;;;19.70;60.20;;;;;;5012093;28;20102;-82
2022/05/10 07:14:30;;;;;;;;;;;19.80;60.10;;;;;;4991509;28;19991;-81
2022/05/10 07:16:56;;;;;;;;;;;19.90;60.30;;;;;;4989715;28;19921;-87
2022/05/10 07:19:27;;;;;;;;;;;19.90;60.20;;;;;;4989557;28;19917;-82
2022/05/10 07:21:58;;;;;;;;;;;19.90;60.30;;;;;;4980604;28;20116;-82
2022/05/10 07:27:34;;;;;;;;;;;19.90;61.60;;;;;;4992987;28;19922;-82
2022/05/10 07:30:30;;;;;;;;;;;20.10;60.60;;;;;;4989112;28;19921;-82
2022/05/10 07:33:09;;;;;;;;;;;20.10;60.60;;;;;;4985287;28;19914;-82
2022/05/10 07:38:19;;;;;;;;;;;20.30;59.90;;;;;;4992443;28;19921;-83
2022/05/10 07:40:48;;;;;;;;;;;20.40;59.30;;;;;;4991714;28;19921;-82
2022/05/10 07:43:14;;;;;;;;;;;20.60;59.40;;;;;;4990718;28;19914;-81
2022/05/10 07:45:47;;;;;;;;;;;20.50;58.80;;;;;;4994666;28;19917;-82
2022/05/10 07:48:18;;;;;;;;;;;20.60;58.80;;;;;;5012849;28;19968;-82
2022/05/10 07:50:57;;;;;;;;;;;20.50;58.20;;;;;;5009520;28;19909;-82
2022/05/10 07:53:25;;;;;;;;;;;20.60;58.60;;;;;;4977446;28;20000;-83
2022/05/10 07:56:00;;;;;;;;;;;20.70;58.90;;;;;;4992684;28;19917;-82
2022/05/10 07:58:33;;;;;;;;;;;20.90;57.50;;;;;;4997251;28;19914;-83
2022/05/10 08:01:07;;;;;;;;;;;21.00;57.30;;;;;;4971682;28;19916;-82
2022/05/10 08:03:33;;;;;;;;;;;21.00;57.20;;;;;;4994173;28;20293;-82
2022/05/10 08:06:01;;;;;;;;;;;21.10;57.40;;;;;;4978115;28;19925;-82
2022/05/10 08:08:28;;;;;;;;;;;21.10;57.70;;;;;;5000469;28;19925;-82
2022/05/10 08:10:58;;;;;;;;;;;21.30;56.90;;;;;;4993893;28;19973;-82
2022/05/10 08:13:31;;;;;;;;;;;21.40;56.20;;;;;;4991366;28;19920;-82
2022/05/10 08:16:11;;;;;;;;;;;21.60;56.60;;;;;;4996581;28;19967;-82
2022/05/10 08:18:56;;;;;;;;;;;21.80;56.60;;;;;;4990184;28;19932;-82
2022/05/10 08:21:55;;;;;;;;;;;21.80;56.10;;;;;;4993240;28;19917;-82
2022/05/10 08:27:19;;;;;;;;;;;22.00;53.90;;;;;;4989841;28;20016;-80
2022/05/10 08:29:45;;;;;;;;;;;21.80;54.50;;;;;;4989152;28;20380;-81
2022/05/10 08:32:10;;;;;;;;;;;22.00;53.90;;;;;;4988149;28;19914;-81
2022/05/10 08:34:36;;;;;;;;;;;22.00;54.40;;;;;;5003320;28;20092;-81
2022/05/10 08:37:02;;;;;;;;;;;22.00;54.70;;;;;;4992460;28;19992;-80
2022/05/10 08:39:28;;;;;;;;;;;22.10;54.60;;;;;;4995182;28;20376;-83
2022/05/10 08:41:55;;;;;;;;;;;22.10;54.70;;;;;;4997664;28;19921;-82
2022/05/10 08:44:35;;;;;;;;;;;22.20;54.30;;;;;;4979969;28;19928;-83
2022/05/10 08:47:03;;;;;;;;;;;22.40;53.00;;;;;;4997224;28;19969;-82
2022/05/10 08:49:50;;;;;;;;;;;22.50;53.70;;;;;;4996350;28;19910;-82
2022/05/10 08:52:16;;;;;;;;;;;22.50;52.90;;;;;;5016385;28;19921;-81
2022/05/10 08:54:42;;;;;;;;;;;22.60;53.00;;;;;;4989741;28;19914;-81
2022/05/10 08:57:18;;;;;;;;;;;22.90;52.60;;;;;;4995953;28;20225;-82
2022/05/10 08:59:49;;;;;;;;;;;23.00;50.60;;;;;;4992755;28;19914;-82
2022/05/10 09:02:22;;;;;;;;;;;23.20;50.80;;;;;;4994215;28;20004;-82
2022/05/10 09:05:00;;;;;;;;;;;23.40;50.00;;;;;;4993614;28;19922;-82
2022/05/10 09:07:26;;;;;;;;;;;23.50;50.90;;;;;;4995807;28;19917;-82
2022/05/10 09:10:01;;;;;;;;;;;23.80;48.20;;;;;;4992214;28;20012;-82
2022/05/10 09:12:28;;;;;;;;;;;24.10;47.20;;;;;;4994188;28;19925;-82
2022/05/10 09:14:55;;;;;;;;;;;24.10;46.80;;;;;;4980145;28;19986;-81
2022/05/10 09:17:22;;;;;;;;;;;24.10;46.90;;;;;;4999236;28;19913;-82
2022/05/10 09:19:50;;;;;;;;;;;24.00;46.70;;;;;;4979568;28;20101;-83
2022/05/10 09:22:36;;;;;;;;;;;24.00;47.20;;;;;;5003703;28;19946;-80
2022/05/10 09:25:07;;;;;;;;;;;24.20;46.90;;;;;;4970916;28;19913;-80
2022/05/10 09:27:34;;;;;;;;;;;24.40;46.10;;;;;;4976552;28;20012;-80
2022/05/10 09:30:00;;;;;;;;;;;24.40;46.20;;;;;;4991680;28;19921;-80
2022/05/10 09:35:14;;;;;;;;;;;24.30;45.60;;;;;;4990077;28;19959;-80
2022/05/10 09:37:46;;;;;;;;;;;24.40;45.40;;;;;;4995776;28;19910;-80
2022/05/10 09:40:17;;;;;;;;;;;24.20;46.10;;;;;;4985026;28;19929;-81
2022/05/10 09:42:47;;;;;;;;;;;24.20;46.10;;;;;;4993395;28;19913;-81
2022/05/10 09:45:18;;;;;;;;;;;24.20;45.00;;;;;;4993844;28;19980;-80
2022/05/10 09:48:02;;;;;;;;;;;24.10;44.50;;;;;;4991162;28;19916;-81
2022/05/10 09:50:35;;;;;;;;;;;24.00;44.80;;;;;;4993992;28;19914;-80
2022/05/10 09:53:08;;;;;;;;;;;24.00;45.00;;;;;;4994367;28;20416;-80
2022/05/10 09:55:34;;;;;;;;;;;24.00;44.70;;;;;;5010321;28;19948;-80
2022/05/10 09:58:11;;;;;;;;;;;24.00;45.70;;;;;;5000627;28;19937;-80
2022/05/10 10:00:41;;;;;;;;;;;24.10;45.50;;;;;;5007817;28;19932;-79
2022/05/10 10:03:07;;;;;;;;;;;24.30;44.90;;;;;;5009329;28;20379;-80
2022/05/10 10:05:33;;;;;;;;;;;24.50;45.20;;;;;;4992366;28;19966;-80
2022/05/10 10:07:58;;;;;;;;;;;24.60;44.20;;;;;;4993366;28;19914;-79
2022/05/10 10:10:34;;;;;;;;;;;24.70;43.90;;;;;;4991711;28;20011;-80
2022/05/10 10:13:20;;;;;;;;;;;24.90;42.50;;;;;;4987810;28;19921;-80
2022/05/10 10:15:45;;;;;;;;;;;24.90;42.80;;;;;;5004840;28;20043;-80
2022/05/10 10:18:13;;;;;;;;;;;24.80;43.00;;;;;;4993320;28;20353;-80
2022/05/10 10:20:51;;;;;;;;;;;24.90;42.30;;;;;;5006602;28;19925;-83
2022/05/10 10:23:19;;;;;;;;;;;25.10;42.60;;;;;;4994783;28;19929;-81
2022/05/10 10:25:46;;;;;;;;;;;25.30;42.00;;;;;;4996002;28;19918;-81
2022/05/10 10:28:24;;;;;;;;;;;25.50;41.10;;;;;;4993145;28;19917;-83
2022/05/10 10:30:53;;;;;;;;;;;25.50;40.80;;;;;;5008021;28;19918;-83
2022/05/10 10:33:19;;;;;;;;;;;25.60;41.00;;;;;;4994781;28;19914;-82
2022/05/10 10:35:53;;;;;;;;;;;25.60;38.60;;;;;;4997835;28;19913;-81
2022/05/10 10:38:28;;;;;;;;;;;25.60;39.00;;;;;;4996517;28;19959;-83
2022/05/10 10:41:11;;;;;;;;;;;25.70;39.20;;;;;;4994038;28;19925;-83
2022/05/10 10:43:55;;;;;;;;;;;25.80;39.90;;;;;;4991648;28;19913;-83
2022/05/10 10:46:26;;;;;;;;;;;25.70;40.50;;;;;;4985106;28;20265;-82
2022/05/10 10:49:14;;;;;;;;;;;25.80;40.40;;;;;;4987093;28;20180;-82
2022/05/10 10:51:40;;;;;;;;;;;26.00;40.80;;;;;;4961461;28;19979;-81
2022/05/10 10:54:09;;;;;;;;;;;26.00;39.90;;;;;;4986326;28;19918;-81
2022/05/10 10:56:46;;;;;;;;;;;25.80;40.30;;;;;;4990662;28;19937;-82
2022/05/10 10:59:14;;;;;;;;;;;25.70;40.60;;;;;;4990708;28;19918;-81
2022/05/10 11:01:49;;;;;;;;;;;25.70;41.10;;;;;;4990681;28;19992;-81
2022/05/10 11:04:25;;;;;;;;;;;26.00;40.90;;;;;;4990502;28;20264;-81
2022/05/10 11:06:52;;;;;;;;;;;26.00;41.80;;;;;;4976311;28;20403;-82
2022/05/10 11:09:20;;;;;;;;;;;26.10;41.40;;;;;;4981195;28;20369;-81
2022/05/10 11:11:48;;;;;;;;;;;26.10;41.80;;;;;;4991056;28;19977;-80
2022/05/10 11:14:34;;;;;;;;;;;26.10;41.80;;;;;;4988589;28;19975;-83
2022/05/10 11:17:05;;;;;;;;;;;26.00;41.70;;;;;;4967948;28;19914;-80
2022/05/10 11:19:42;;;;;;;;;;;26.10;42.00;;;;;;5009262;28;19937;-80
2022/05/10 11:22:24;;;;;;;;;;;26.10;41.80;;;;;;4983195;28;19922;-80
2022/05/10 11:25:06;;;;;;;;;;;26.00;42.80;;;;;;4986235;28;19914;-79
2022/05/10 11:27:35;;;;;;;;;;;26.00;42.40;;;;;;4986142;28;19991;-79
2022/05/10 11:30:06;;;;;;;;;;;25.80;42.50;;;;;;4984513;28;19918;-80
2022/05/10 11:32:44;;;;;;;;;;;25.60;42.50;;;;;;4993698;28;19922;-80
2022/05/10 11:35:26;;;;;;;;;;;25.60;42.60;;;;;;4994124;28;19922;-80
2022/05/10 11:38:02;;;;;;;;;;;25.60;42.90;;;;;;5006051;28;19951;-78
2022/05/10 11:40:37;;;;;;;;;;;25.70;42.30;;;;;;4987817;28;19918;-79
2022/05/10 11:43:08;;;;;;;;;;;25.80;41.50;;;;;;4981576;28;20064;-80
2022/05/10 11:45:40;;;;;;;;;;;25.80;41.10;;;;;;4974979;28;19972;-80
2022/05/10 11:48:09;;;;;;;;;;;25.70;41.10;;;;;;4972544;28;19914;-80
2022/05/10 11:53:47;;;;;;;;;;;25.60;40.40;;;;;;4987790;28;19924;-78
2022/05/10 11:56:14;;;;;;;;;;;25.50;40.20;;;;;;4990415;28;19984;-79
2022/05/10 11:58:40;;;;;;;;;;;25.50;40.00;;;;;;4989740;28;19956;-79
2022/05/10 12:01:14;;;;;;;;;;;25.50;40.00;;;;;;4986983;28;19976;-80
2022/05/10 12:03:39;;;;;;;;;;;25.60;40.10;;;;;;4987988;28;20370;-82
2022/05/10 12:06:23;;;;;;;;;;;25.70;40.30;;;;;;4986614;28;20001;-82
2022/05/10 12:08:49;;;;;;;;;;;25.80;40.00;;;;;;4990247;28;19924;-79
2022/05/10 12:11:34;;;;;;;;;;;25.80;38.50;;;;;;4996401;28;19914;-81
2022/05/10 12:22:17;;;;;;;;;;;25.70;39.50;;;;;;4994658;28;19921;-81
2022/05/10 12:24:45;;;;;;;;;;;25.60;40.10;;;;;;4991712;28;20321;-81
2022/05/10 12:27:11;;;;;;;;;;;25.60;39.40;;;;;;4985389;28;19921;-81
2022/05/10 12:29:39;;;;;;;;;;;25.60;40.60;;;;;;4995576;28;19975;-81
2022/05/10 12:32:23;;;;;;;;;;;25.70;39.90;;;;;;4997045;28;20644;-82
2022/05/10 12:34:52;;;;;;;;;;;25.80;39.50;;;;;;4976059;28;19925;-82
2022/05/10 12:37:33;;;;;;;;;;;25.80;39.20;;;;;;5001467;28;19914;-82
2022/05/10 12:40:10;;;;;;;;;;;25.90;39.30;;;;;;5000130;28;19924;-80
2022/05/10 12:42:55;;;;;;;;;;;26.10;38.60;;;;;;5001056;28;19914;-79
2022/05/10 12:45:35;;;;;;;;;;;26.30;38.80;;;;;;5005018;28;20352;-81
2022/05/10 12:48:05;;;;;;;;;;;26.40;37.60;;;;;;4990639;28;19917;-81
2022/05/10 12:50:37;;;;;;;;;;;26.50;37.50;;;;;;4976103;28;19914;-81
2022/05/10 12:53:09;;;;;;;;;;;26.70;35.90;;;;;;4994717;28;20211;-81
2022/05/10 12:55:36;;;;;;;;;;;26.70;36.60;;;;;;4963021;28;20506;-82
2022/05/10 12:58:11;;;;;;;;;;;26.90;36.80;;;;;;4903086;28;20165;-82
2022/05/10 13:00:46;;;;;;;;;;;27.00;36.80;;;;;;4905118;28;20456;-81
2022/05/10 13:03:16;;;;;;;;;;;27.10;36.30;;;;;;4894434;28;20627;-80
2022/05/10 13:05:48;;;;;;;;;;;27.10;36.30;;;;;;4903654;28;20132;-81
2022/05/10 13:08:21;;;;;;;;;;;27.20;35.60;;;;;;4889891;28;20283;-80
2022/05/10 13:10:52;;;;;;;;;;;27.20;35.70;;;;;;4904249;28;20233;-85
2022/05/10 13:13:21;;;;;;;;;;;27.10;35.30;;;;;;4893154;28;20294;-83
2022/05/10 13:15:50;;;;;;;;;;;26.90;35.10;;;;;;4876382;28;20208;-81
2022/05/10 13:18:20;;;;;;;;;;;26.80;35.20;;;;;;4902779;28;20311;-80
2022/05/10 13:21:02;;;;;;;;;;;26.80;36.10;;;;;;4855735;28;20777;-81
2022/05/10 13:23:29;;;;;;;;;;;26.90;36.50;;;;;;4876133;28;20663;-80
2022/05/10 13:26:05;;;;;;;;;;;26.70;36.10;;;;;;4891147;28;20455;-82
2022/05/10 13:28:52;;;;;;;;;;;26.60;36.60;;;;;;4875013;28;20357;-84
2022/05/10 13:31:21;;;;;;;;;;;26.70;37.00;;;;;;4925725;28;20024;-83
2022/05/10 13:33:47;;;;;;;;;;;26.80;36.60;;;;;;4945505;28;20216;-82
2022/05/10 13:36:16;;;;;;;;;;;26.80;37.20;;;;;;4966262;28;20713;-84
2022/05/10 13:38:46;;;;;;;;;;;26.80;37.80;;;;;;4964016;28;19910;-82
2022/05/10 13:41:13;;;;;;;;;;;26.60;37.90;;;;;;4960964;28;19929;-82
2022/05/10 13:43:41;;;;;;;;;;;26.50;38.30;;;;;;4951314;28;20490;-82
2022/05/10 13:46:08;;;;;;;;;;;26.50;37.80;;;;;;4942065;28;19921;-82
2022/05/10 13:48:58;;;;;;;;;;;26.50;37.70;;;;;;4959516;28;20443;-81
2022/05/10 13:51:53;;;;;;;;;;;26.40;38.00;;;;;;4961730;28;19980;-82
2022/05/10 13:54:34;;;;;;;;;;;26.30;38.50;;;;;;4926226;28;19910;-82
2022/05/10 13:57:18;;;;;;;;;;;26.30;39.00;;;;;;4959180;28;20032;-81
2022/05/10 13:59:45;;;;;;;;;;;26.40;39.00;;;;;;4960669;28;20734;-81
2022/05/10 14:02:12;;;;;;;;;;;26.50;38.90;;;;;;4953067;28;20409;-81
2022/05/10 14:04:45;;;;;;;;;;;26.60;38.50;;;;;;4990279;28;19910;-82
2022/05/10 14:07:13;;;;;;;;;;;26.60;38.70;;;;;;4993526;28;19921;-82
2022/05/10 14:09:41;;;;;;;;;;;26.60;39.70;;;;;;4994803;28;19910;-81
2022/05/10 14:12:13;;;;;;;;;;;26.70;39.20;;;;;;4961965;28;20263;-82
2022/05/10 14:14:39;;;;;;;;;;;26.80;38.40;;;;;;4966211;28;19916;-81
2022/05/10 14:17:07;;;;;;;;;;;26.90;37.50;;;;;;4963913;28;20466;-82
2022/05/10 14:19:45;;;;;;;;;;;27.00;38.40;;;;;;4969064;28;20041;-82
2022/05/10 14:22:17;;;;;;;;;;;26.90;38.40;;;;;;4968372;28;19914;-81
2022/05/10 14:24:43;;;;;;;;;;;27.00;38.60;;;;;;4968569;28;19952;-81
2022/05/10 14:27:10;;;;;;;;;;;27.00;38.20;;;;;;4967718;28;19914;-80
2022/05/10 14:29:38;;;;;;;;;;;27.10;38.80;;;;;;4966078;28;19910;-81
2022/05/10 14:32:05;;;;;;;;;;;27.00;37.70;;;;;;4965648;28;19956;-82
2022/05/10 14:34:51;;;;;;;;;;;26.70;38.40;;;;;;4967452;28;19953;-83
2022/05/10 14:37:18;;;;;;;;;;;26.50;38.40;;;;;;4951152;28;20463;-83
2022/05/10 14:39:43;;;;;;;;;;;26.30;38.70;;;;;;4972649;28;19921;-80
2022/05/10 14:42:27;;;;;;;;;;;26.30;39.00;;;;;;4964475;28;20246;-80
2022/05/10 14:44:54;;;;;;;;;;;26.30;39.30;;;;;;4971261;28;19913;-82
2022/05/10 14:47:23;;;;;;;;;;;26.30;39.40;;;;;;4951260;28;20050;-85
2022/05/10 14:49:50;;;;;;;;;;;26.40;39.00;;;;;;4975052;28;20111;-81
2022/05/10 14:52:23;;;;;;;;;;;26.40;39.70;;;;;;4973582;28;19924;-82
2022/05/10 14:54:49;;;;;;;;;;;26.60;39.50;;;;;;4970977;28;19921;-81
2022/05/10 14:57:24;;;;;;;;;;;26.80;39.30;;;;;;4948054;28;19925;-81
2022/05/10 14:59:51;;;;;;;;;;;26.90;39.70;;;;;;4957451;28;20184;-80
2022/05/10 15:02:26;;;;;;;;;;;27.00;38.90;;;;;;4959407;28;20135;-84
2022/05/10 15:04:52;;;;;;;;;;;27.20;39.10;;;;;;4962488;28;19985;-83